createdAt,value
2018-03-11T00:00:28.359Z,0
2018-03-11T00:01:08.784Z,0
2018-03-11T00:01:49.368Z,0
2018-03-11T00:02:29.807Z,0
2018-03-11T00:03:10.327Z,0
2018-03-11T00:03:50.807Z,0
2018-03-11T00:04:31.350Z,0
2018-03-11T00:05:11.892Z,0
2018-03-11T00:05:52.329Z,0
2018-03-11T00:06:32.782Z,0
2018-03-11T00:07:13.273Z,0
2018-03-11T00:07:53.751Z,0
2018-03-11T00:08:34.303Z,0
2018-03-11T00:09:14.816Z,0
2018-03-11T00:09:55.365Z,0
2018-03-11T00:10:35.844Z,0
2018-03-11T00:11:16.340Z,0
2018-03-11T00:11:56.848Z,0
2018-03-11T00:12:37.455Z,0
2018-03-11T00:13:17.871Z,0
2018-03-11T00:13:58.362Z,0
2018-03-11T00:14:38.912Z,0
2018-03-11T00:15:19.355Z,0
2018-03-11T00:15:59.931Z,0
2018-03-11T00:16:40.382Z,0
2018-03-11T00:17:20.820Z,0
2018-03-11T00:18:01.445Z,0
2018-03-11T00:18:41.951Z,0
2018-03-11T00:19:22.418Z,0
2018-03-11T00:20:02.967Z,0
2018-03-11T00:20:43.456Z,0
2018-03-11T00:21:24.159Z,0
2018-03-11T00:22:04.593Z,0
2018-03-11T00:22:45.258Z,0
2018-03-11T00:23:25.624Z,0
2018-03-11T00:24:06.090Z,0
2018-03-11T00:24:46.648Z,0
2018-03-11T00:25:27.141Z,0
2018-03-11T00:26:07.622Z,0
2018-03-11T00:26:48.131Z,0
2018-03-11T00:27:28.549Z,0
2018-03-11T00:28:09.101Z,0
2018-03-11T00:28:49.562Z,0
2018-03-11T00:29:30.057Z,0
2018-03-11T00:30:10.565Z,0
2018-03-11T00:30:51.112Z,0
2018-03-11T00:31:31.622Z,0
2018-03-11T00:32:12.076Z,0
2018-03-11T00:32:52.598Z,0
2018-03-11T00:33:33.110Z,0
2018-03-11T00:34:13.517Z,0
2018-03-11T00:34:53.940Z,0
2018-03-11T00:35:34.477Z,0
2018-03-11T00:36:15.058Z,0
2018-03-11T00:36:55.582Z,0
2018-03-11T00:37:36.192Z,0
2018-03-11T00:38:16.611Z,0
2018-03-11T00:38:57.118Z,0
2018-03-11T00:39:37.596Z,0
2018-03-11T00:40:18.041Z,0
2018-03-11T00:40:58.547Z,0
2018-03-11T00:41:39.061Z,0
2018-03-11T00:42:19.563Z,0
2018-03-11T00:42:59.979Z,0
2018-03-11T00:43:40.533Z,0
2018-03-11T00:44:21.057Z,0
2018-03-11T00:45:01.535Z,0
2018-03-11T00:45:42.062Z,0
2018-03-11T00:46:22.585Z,0
2018-03-11T00:47:03.083Z,0
2018-03-11T00:47:43.670Z,0
2018-03-11T00:48:24.383Z,0
2018-03-11T00:49:04.885Z,0
2018-03-11T00:49:45.385Z,0
2018-03-11T00:50:25.842Z,0
2018-03-11T00:51:06.328Z,0
2018-03-11T00:51:46.829Z,0
2018-03-11T00:52:27.413Z,0
2018-03-11T00:53:07.949Z,0
2018-03-11T00:53:48.347Z,0
2018-03-11T00:54:28.808Z,0
2018-03-11T00:55:09.312Z,0
2018-03-11T00:55:49.796Z,0
2018-03-11T00:56:30.436Z,0
2018-03-11T00:57:10.903Z,0
2018-03-11T00:57:51.308Z,0
2018-03-11T00:58:31.895Z,0
2018-03-11T00:59:12.325Z,0
2018-03-11T00:59:52.829Z,0
2018-03-11T01:00:33.365Z,0
2018-03-11T01:01:13.798Z,0
2018-03-11T01:01:54.365Z,0
2018-03-11T01:02:34.887Z,0
2018-03-11T01:03:15.480Z,0
2018-03-11T01:03:55.952Z,0
2018-03-11T01:04:36.450Z,0
2018-03-11T01:05:16.956Z,0
2018-03-11T01:05:57.559Z,0
2018-03-11T01:06:37.940Z,0
2018-03-11T01:07:18.429Z,0
2018-03-11T01:07:58.995Z,0
2018-03-11T01:08:39.523Z,0
2018-03-11T01:09:19.970Z,0
2018-03-11T01:10:00.521Z,0
2018-03-11T01:10:41.008Z,0
2018-03-11T01:11:21.472Z,0
2018-03-11T01:12:01.934Z,0
2018-03-11T01:12:42.408Z,0
2018-03-11T01:13:22.925Z,0
2018-03-11T01:14:03.499Z,0
2018-03-11T01:14:43.967Z,0
2018-03-11T01:15:24.389Z,0
2018-03-11T01:16:04.972Z,0
2018-03-11T01:16:45.716Z,0
2018-03-11T01:17:26.259Z,0
2018-03-11T01:18:06.710Z,0
2018-03-11T01:18:47.217Z,0
2018-03-11T01:19:27.705Z,0
2018-03-11T01:20:08.178Z,0
2018-03-11T01:20:48.657Z,0
2018-03-11T01:21:29.165Z,0
2018-03-11T01:22:09.659Z,0
2018-03-11T01:22:50.098Z,0
2018-03-11T01:23:30.678Z,0
2018-03-11T01:24:11.125Z,0
2018-03-11T01:24:51.587Z,0
2018-03-11T01:25:32.189Z,0
2018-03-11T01:26:12.708Z,0
2018-03-11T01:26:53.098Z,0
2018-03-11T01:27:33.655Z,0
2018-03-11T01:28:14.156Z,0
2018-03-11T01:28:54.624Z,0
2018-03-11T01:29:35.166Z,0
2018-03-11T01:30:15.650Z,0
2018-03-11T01:30:56.071Z,0
2018-03-11T01:31:36.586Z,0
2018-03-11T01:32:17.116Z,0
2018-03-11T01:32:57.612Z,0
2018-03-11T01:33:38.079Z,0
2018-03-11T01:34:18.545Z,0
2018-03-11T01:34:59.059Z,0
2018-03-11T01:35:39.591Z,0
2018-03-11T01:36:20.074Z,0
2018-03-11T01:37:00.634Z,0
2018-03-11T01:37:41.106Z,0
2018-03-11T01:38:21.674Z,0
2018-03-11T01:39:02.207Z,0
2018-03-11T01:39:42.793Z,0
2018-03-11T01:40:23.249Z,0
2018-03-11T01:41:03.761Z,0
2018-03-11T01:41:44.220Z,0
2018-03-11T01:42:24.759Z,0
2018-03-11T01:43:05.250Z,0
2018-03-11T01:43:45.673Z,0
2018-03-11T01:44:26.184Z,0
2018-03-11T01:45:06.698Z,0
2018-03-11T01:45:47.159Z,0
2018-03-11T01:46:27.621Z,0
2018-03-11T01:47:08.081Z,0
2018-03-11T01:47:48.585Z,0
2018-03-11T01:48:29.018Z,0
2018-03-11T01:49:09.516Z,0
2018-03-11T01:49:50.033Z,0
2018-03-11T01:50:30.508Z,0
2018-03-11T01:51:11.006Z,0
2018-03-11T01:51:51.581Z,0
2018-03-11T01:52:32.073Z,0
2018-03-11T01:53:12.556Z,0
2018-03-11T01:53:52.982Z,0
2018-03-11T01:54:33.497Z,0
2018-03-11T01:55:13.987Z,0
2018-03-11T01:55:54.513Z,0
2018-03-11T01:56:34.971Z,0
2018-03-11T01:57:15.511Z,0
2018-03-11T01:57:56.196Z,0
2018-03-11T01:58:36.772Z,0
2018-03-11T01:59:17.369Z,0
2018-03-11T01:59:57.824Z,0
2018-03-11T02:00:38.372Z,0
2018-03-11T02:01:18.898Z,0
2018-03-11T02:01:59.312Z,0
2018-03-11T02:02:39.862Z,0
2018-03-11T02:03:20.397Z,0
2018-03-11T02:04:01.055Z,0
2018-03-11T02:04:41.481Z,0
2018-03-11T02:05:21.975Z,0
2018-03-11T02:06:02.484Z,0
2018-03-11T02:06:42.955Z,0
2018-03-11T02:07:23.600Z,0
2018-03-11T02:08:03.968Z,0
2018-03-11T02:08:44.544Z,0
2018-03-11T02:09:24.982Z,0
2018-03-11T02:10:05.432Z,0
2018-03-11T02:10:45.985Z,0
2018-03-11T02:11:26.473Z,0
2018-03-11T02:12:06.938Z,0
2018-03-11T02:12:47.441Z,0
2018-03-11T02:13:27.901Z,0
2018-03-11T02:14:08.382Z,0
2018-03-11T02:14:48.966Z,0
2018-03-11T02:15:29.466Z,0
2018-03-11T02:16:09.869Z,0
2018-03-11T02:16:50.330Z,0
2018-03-11T02:17:30.877Z,0
2018-03-11T02:18:11.420Z,0
2018-03-11T02:18:51.889Z,0
2018-03-11T02:19:32.368Z,0
2018-03-11T02:20:12.849Z,0
2018-03-11T02:20:53.408Z,0
2018-03-11T02:21:33.924Z,0
2018-03-11T02:22:14.336Z,0
2018-03-11T02:22:54.886Z,0
2018-03-11T02:23:35.337Z,0
2018-03-11T02:24:15.844Z,0
2018-03-11T02:24:56.305Z,0
2018-03-11T02:25:36.839Z,0
2018-03-11T02:26:17.380Z,0
2018-03-11T02:26:57.911Z,0
2018-03-11T02:27:38.349Z,0
2018-03-11T02:28:18.851Z,0
2018-03-11T02:28:59.337Z,0
2018-03-11T02:29:39.810Z,0
2018-03-11T02:30:20.281Z,0
2018-03-11T02:31:00.784Z,0
2018-03-11T02:31:41.252Z,0
2018-03-11T02:32:21.745Z,0
2018-03-11T02:33:02.272Z,0
2018-03-11T02:33:42.727Z,0
2018-03-11T02:34:23.264Z,0
2018-03-11T02:35:03.733Z,0
2018-03-11T02:35:44.200Z,0
2018-03-11T02:36:24.692Z,0
2018-03-11T02:37:05.175Z,0
2018-03-11T02:37:45.681Z,0
2018-03-11T02:38:26.174Z,0
2018-03-11T02:39:06.690Z,0
2018-03-11T02:39:47.172Z,0
2018-03-11T02:40:27.674Z,0
2018-03-11T02:41:08.196Z,0
2018-03-11T02:41:48.671Z,0
2018-03-11T02:42:29.149Z,0
2018-03-11T02:43:09.628Z,0
2018-03-11T02:43:50.126Z,0
2018-03-11T02:44:30.558Z,0
2018-03-11T02:45:11.071Z,0
2018-03-11T02:45:51.547Z,0
2018-03-11T02:46:32.046Z,0
2018-03-11T02:47:12.485Z,0
2018-03-11T02:47:53.010Z,0
2018-03-11T02:48:33.480Z,0
2018-03-11T02:49:13.940Z,0
2018-03-11T02:49:54.465Z,0
2018-03-11T02:50:34.929Z,0
2018-03-11T02:51:15.421Z,0
2018-03-11T02:51:55.949Z,0
2018-03-11T02:52:36.481Z,0
2018-03-11T02:53:16.956Z,0
2018-03-11T02:53:57.452Z,0
2018-03-11T02:54:37.958Z,0
2018-03-11T02:55:18.463Z,0
2018-03-11T02:55:58.951Z,0
2018-03-11T02:56:39.476Z,0
2018-03-11T02:57:19.959Z,0
2018-03-11T02:58:00.460Z,0
2018-03-11T02:58:40.954Z,0
2018-03-11T02:59:21.469Z,0
2018-03-11T03:00:01.960Z,0
2018-03-11T03:00:42.458Z,0
2018-03-11T03:01:22.963Z,0
2018-03-11T03:02:03.464Z,0
2018-03-11T03:02:43.949Z,0
2018-03-11T03:03:24.473Z,0
2018-03-11T03:04:05.000Z,0
2018-03-11T03:04:45.499Z,0
2018-03-11T03:05:26.016Z,0
2018-03-11T03:06:06.475Z,0
2018-03-11T03:06:47.003Z,0
2018-03-11T03:07:27.488Z,0
2018-03-11T03:08:07.969Z,0
2018-03-11T03:08:48.471Z,0
2018-03-11T03:09:28.925Z,0
2018-03-11T03:10:09.480Z,0
2018-03-11T03:10:49.947Z,0
2018-03-11T03:11:30.468Z,0
2018-03-11T03:12:10.925Z,0
2018-03-11T03:12:51.438Z,0
2018-03-11T03:13:31.947Z,0
2018-03-11T03:14:12.443Z,0
2018-03-11T03:14:52.967Z,0
2018-03-11T03:15:33.465Z,0
2018-03-11T03:16:13.965Z,0
2018-03-11T03:16:54.482Z,0
2018-03-11T03:17:34.967Z,0
2018-03-11T03:18:15.451Z,0
2018-03-11T03:18:56.007Z,0
2018-03-11T03:19:36.507Z,0
2018-03-11T03:20:16.971Z,0
2018-03-11T03:20:57.491Z,0
2018-03-11T03:21:37.969Z,0
2018-03-11T03:22:18.480Z,0
2018-03-11T03:22:58.980Z,0
2018-03-11T03:23:39.457Z,0
2018-03-11T03:24:19.960Z,0
2018-03-11T03:25:00.430Z,0
2018-03-11T03:25:40.925Z,0
2018-03-11T03:26:21.426Z,0
2018-03-11T03:27:01.946Z,0
2018-03-11T03:27:42.431Z,0
2018-03-11T03:28:22.978Z,0
2018-03-11T03:29:03.448Z,0
2018-03-11T03:29:43.952Z,0
2018-03-11T03:30:24.439Z,0
2018-03-11T03:31:04.906Z,0
2018-03-11T03:31:45.396Z,0
2018-03-11T03:32:25.863Z,0
2018-03-11T03:33:06.346Z,0
2018-03-11T03:33:46.802Z,0
2018-03-11T03:34:27.326Z,0
2018-03-11T03:35:07.800Z,0
2018-03-11T03:35:48.296Z,0
2018-03-11T03:36:28.762Z,0
2018-03-11T03:37:09.260Z,0
2018-03-11T03:37:49.753Z,0
2018-03-11T03:38:30.311Z,0
2018-03-11T03:39:10.771Z,0
2018-03-11T03:39:51.244Z,0
2018-03-11T03:40:31.788Z,0
2018-03-11T03:41:12.227Z,0
2018-03-11T03:41:52.790Z,0
2018-03-11T03:42:33.213Z,0
2018-03-11T03:43:13.733Z,0
2018-03-11T03:43:54.235Z,0
2018-03-11T03:44:34.743Z,0
2018-03-11T03:45:15.238Z,0
2018-03-11T03:45:55.765Z,0
2018-03-11T03:46:36.242Z,0
2018-03-11T03:47:16.741Z,0
2018-03-11T03:47:57.224Z,0
2018-03-11T03:48:37.722Z,0
2018-03-11T03:49:18.240Z,0
2018-03-11T03:49:58.713Z,0
2018-03-11T03:50:39.204Z,0
2018-03-11T03:51:19.726Z,0
2018-03-11T03:52:00.173Z,0
2018-03-11T03:52:40.671Z,0
2018-03-11T03:53:21.180Z,0
2018-03-11T03:54:01.664Z,0
2018-03-11T03:54:42.178Z,0
2018-03-11T03:55:22.657Z,0
2018-03-11T03:56:03.176Z,0
2018-03-11T03:56:43.694Z,0
2018-03-11T03:57:24.186Z,0
2018-03-11T03:58:04.690Z,0
2018-03-11T03:58:45.200Z,0
2018-03-11T03:59:25.691Z,0
2018-03-11T04:00:06.185Z,0
2018-03-11T04:00:46.720Z,0
2018-03-11T04:01:27.161Z,0
2018-03-11T04:02:07.656Z,0
2018-03-11T04:02:48.196Z,0
2018-03-11T04:03:28.622Z,0
2018-03-11T04:04:09.175Z,0
2018-03-11T04:04:49.676Z,0
2018-03-11T04:05:30.152Z,0
2018-03-11T04:06:10.642Z,0
2018-03-11T04:06:51.161Z,0
2018-03-11T04:07:31.665Z,0
2018-03-11T04:08:12.150Z,0
2018-03-11T04:08:52.652Z,0
2018-03-11T04:09:33.125Z,0
2018-03-11T04:10:13.618Z,0
2018-03-11T04:10:54.122Z,0
2018-03-11T04:11:34.640Z,0
2018-03-11T04:12:15.114Z,0
2018-03-11T04:12:55.623Z,0
2018-03-11T04:13:36.143Z,0
2018-03-11T04:14:16.635Z,0
2018-03-11T04:14:57.123Z,0
2018-03-11T04:15:37.604Z,0
2018-03-11T04:16:18.089Z,0
2018-03-11T04:16:58.593Z,0
2018-03-11T04:17:39.092Z,0
2018-03-11T04:18:19.583Z,0
2018-03-11T04:19:00.127Z,0
2018-03-11T04:19:40.594Z,0
2018-03-11T04:20:21.069Z,0
2018-03-11T04:21:01.567Z,0
2018-03-11T04:21:42.073Z,0
2018-03-11T04:22:22.582Z,0
2018-03-11T04:23:03.043Z,0
2018-03-11T04:23:43.555Z,0
2018-03-11T04:24:24.041Z,0
2018-03-11T04:25:04.541Z,0
2018-03-11T04:25:45.107Z,0
2018-03-11T04:26:25.594Z,0
2018-03-11T04:27:06.077Z,0
2018-03-11T04:27:46.601Z,0
2018-03-11T04:28:27.075Z,0
2018-03-11T04:29:07.584Z,0
2018-03-11T04:29:48.082Z,0
2018-03-11T04:30:28.580Z,0
2018-03-11T04:31:09.079Z,0
2018-03-11T04:31:49.628Z,0
2018-03-11T04:32:30.072Z,0
2018-03-11T04:33:10.584Z,0
2018-03-11T04:33:51.045Z,0
2018-03-11T04:34:31.533Z,0
2018-03-11T04:35:12.049Z,0
2018-03-11T04:35:52.545Z,0
2018-03-11T04:36:33.046Z,0
2018-03-11T04:37:13.520Z,0
2018-03-11T04:37:53.997Z,0
2018-03-11T04:38:34.512Z,0
2018-03-11T04:39:15.033Z,0
2018-03-11T04:39:55.543Z,0
2018-03-11T04:40:36.028Z,0
2018-03-11T04:41:16.528Z,0
2018-03-11T04:41:57.018Z,0
2018-03-11T04:42:37.555Z,0
2018-03-11T04:43:18.055Z,0
2018-03-11T04:43:58.555Z,0
2018-03-11T04:44:39.055Z,0
2018-03-11T04:45:19.543Z,0
2018-03-11T04:46:00.056Z,0
2018-03-11T04:46:40.552Z,0
2018-03-11T04:47:21.027Z,0
2018-03-11T04:48:01.510Z,0
2018-03-11T04:48:42.017Z,0
2018-03-11T04:49:22.517Z,0
2018-03-11T04:50:03.008Z,0
2018-03-11T04:50:43.510Z,0
2018-03-11T04:51:24.028Z,0
2018-03-11T04:52:04.520Z,0
2018-03-11T04:52:44.993Z,0
2018-03-11T04:53:25.477Z,0
2018-03-11T04:54:06.007Z,0
2018-03-11T04:54:46.473Z,0
2018-03-11T04:55:26.955Z,0
2018-03-11T04:56:07.455Z,0
2018-03-11T04:56:47.976Z,0
2018-03-11T04:57:28.474Z,0
2018-03-11T04:58:08.974Z,0
2018-03-11T04:58:49.529Z,0
2018-03-11T04:59:30.003Z,0
2018-03-11T05:00:10.491Z,0
2018-03-11T05:00:50.994Z,0
2018-03-11T05:01:31.488Z,0
2018-03-11T05:02:11.973Z,0
2018-03-11T05:02:52.472Z,0
2018-03-11T05:03:33.004Z,0
2018-03-11T05:04:13.495Z,0
2018-03-11T05:04:54.051Z,0
2018-03-11T05:05:34.513Z,0
2018-03-11T05:06:14.990Z,0
2018-03-11T05:06:55.534Z,0
2018-03-11T05:07:36.049Z,0
2018-03-11T05:08:16.512Z,0
2018-03-11T05:08:57.030Z,0
2018-03-11T05:09:37.539Z,0
2018-03-11T05:10:18.064Z,0
2018-03-11T05:10:58.535Z,0
2018-03-11T05:11:39.058Z,0
2018-03-11T05:12:19.528Z,0
2018-03-11T05:13:00.010Z,0
2018-03-11T05:13:40.496Z,0
2018-03-11T05:14:21.026Z,0
2018-03-11T05:15:01.495Z,0
2018-03-11T05:15:42.018Z,0
2018-03-11T05:16:22.531Z,0
2018-03-11T05:17:03.007Z,0
2018-03-11T05:17:43.508Z,0
2018-03-11T05:18:24.005Z,0
2018-03-11T05:19:04.508Z,0
2018-03-11T05:19:45.015Z,0
2018-03-11T05:20:25.547Z,0
2018-03-11T05:21:06.046Z,0
2018-03-11T05:21:46.571Z,0
2018-03-11T05:22:27.035Z,0
2018-03-11T05:23:07.597Z,0
2018-03-11T05:23:48.118Z,0
2018-03-11T05:24:28.652Z,0
2018-03-11T05:25:09.187Z,0
2018-03-11T05:25:49.668Z,0
2018-03-11T05:26:30.164Z,0
2018-03-11T05:27:10.674Z,0
2018-03-11T05:27:51.247Z,0
2018-03-11T05:28:31.689Z,0
2018-03-11T05:29:12.195Z,0
2018-03-11T05:29:52.684Z,0
2018-03-11T05:30:33.234Z,0
2018-03-11T05:31:13.704Z,0
2018-03-11T05:31:54.210Z,0
2018-03-11T05:32:34.699Z,0
2018-03-11T05:33:15.191Z,0
2018-03-11T05:33:55.703Z,0
2018-03-11T05:34:36.219Z,0
2018-03-11T05:35:16.697Z,0
2018-03-11T05:35:57.197Z,0
2018-03-11T05:36:37.658Z,0
2018-03-11T05:37:18.199Z,0
2018-03-11T05:37:58.699Z,0
2018-03-11T05:38:39.224Z,0
2018-03-11T05:39:19.720Z,0
2018-03-11T05:40:00.214Z,0
2018-03-11T05:40:40.719Z,0
2018-03-11T05:41:21.218Z,0
2018-03-11T05:42:01.731Z,0
2018-03-11T05:42:42.233Z,0
2018-03-11T05:43:22.741Z,0
2018-03-11T05:44:03.247Z,0
2018-03-11T05:44:43.760Z,0
2018-03-11T05:45:24.272Z,0
2018-03-11T05:46:04.739Z,5
2018-03-11T05:46:45.253Z,5
2018-03-11T05:47:25.814Z,5
2018-03-11T05:48:06.322Z,5
2018-03-11T05:48:46.822Z,5
2018-03-11T05:49:27.352Z,5
2018-03-11T05:50:07.856Z,5
2018-03-11T05:50:48.385Z,5
2018-03-11T05:51:28.902Z,5
2018-03-11T05:52:09.411Z,5
2018-03-11T05:52:49.915Z,5
2018-03-11T05:53:30.380Z,5
2018-03-11T05:54:10.885Z,5
2018-03-11T05:54:51.391Z,5
2018-03-11T05:55:31.926Z,10
2018-03-11T05:56:12.399Z,10
2018-03-11T05:56:52.837Z,10
2018-03-11T05:57:33.357Z,10
2018-03-11T05:58:13.843Z,10
2018-03-11T05:58:54.392Z,10
2018-03-11T05:59:34.881Z,10
2018-03-11T06:00:15.365Z,15
2018-03-11T06:00:55.863Z,15
2018-03-11T06:03:29.428Z,20
2018-03-11T06:04:09.934Z,20
2018-03-11T06:04:50.451Z,20
2018-03-11T06:05:30.973Z,20
2018-03-11T06:06:11.431Z,20
2018-03-11T06:06:51.939Z,20
2018-03-11T06:07:32.436Z,20
2018-03-11T06:08:12.916Z,20
2018-03-11T06:08:53.408Z,20
2018-03-11T06:09:33.914Z,25
2018-03-11T06:11:54.083Z,25
2018-03-11T06:12:34.609Z,25
2018-03-11T06:13:15.127Z,25
2018-03-11T06:13:55.609Z,30
2018-03-11T06:14:36.173Z,30
2018-03-11T06:15:16.641Z,30
2018-03-11T06:15:57.132Z,30
2018-03-11T06:16:37.547Z,30
2018-03-11T06:17:18.070Z,30
2018-03-11T06:17:58.515Z,30
2018-03-11T06:18:39.030Z,35
2018-03-11T06:19:19.545Z,35
2018-03-11T06:20:00.049Z,35
2018-03-11T06:20:40.553Z,35
2018-03-11T06:21:21.067Z,35
2018-03-11T06:22:01.525Z,40
2018-03-11T06:22:42.041Z,40
2018-03-11T06:23:22.523Z,40
2018-03-11T06:24:03.022Z,40
2018-03-11T06:24:43.539Z,40
2018-03-11T06:25:24.046Z,45
2018-03-11T06:26:04.562Z,45
2018-03-11T06:26:45.048Z,45
2018-03-11T06:27:25.556Z,45
2018-03-11T06:28:06.373Z,45
2018-03-11T06:28:46.906Z,45
2018-03-11T06:29:27.367Z,50
2018-03-11T06:30:09.608Z,50
2018-03-11T06:30:50.515Z,50
2018-03-11T06:31:33.878Z,55
2018-03-11T06:32:15.983Z,60
2018-03-11T06:32:56.818Z,65
2018-03-11T06:33:37.296Z,65
2018-03-11T06:34:17.899Z,70
2018-03-11T06:35:00.123Z,70
2018-03-11T06:35:40.044Z,70
2018-03-11T06:36:20.520Z,70
2018-03-11T06:37:01.033Z,75
2018-03-11T06:37:41.541Z,75
2018-03-11T06:38:22.063Z,80
2018-03-11T06:39:02.560Z,85
2018-03-11T06:39:43.032Z,80
2018-03-11T06:40:23.538Z,80
2018-03-11T06:41:04.114Z,80
2018-03-11T06:41:44.545Z,80
2018-03-11T06:42:25.040Z,85
2018-03-11T06:43:05.587Z,85
2018-03-11T06:43:46.070Z,85
2018-03-11T06:44:26.574Z,85
2018-03-11T06:45:07.079Z,80
2018-03-11T06:45:47.578Z,80
2018-03-11T06:46:28.097Z,80
2018-03-11T06:47:08.573Z,80
2018-03-11T06:47:49.053Z,75
2018-03-11T06:48:29.609Z,75
2018-03-11T06:49:10.094Z,80
2018-03-11T06:49:50.619Z,80
2018-03-11T06:50:31.126Z,85
2018-03-11T06:51:11.681Z,85
2018-03-11T06:51:52.186Z,85
2018-03-11T06:52:32.675Z,85
2018-03-11T06:53:13.190Z,80
2018-03-11T06:53:53.680Z,75
2018-03-11T06:54:35.771Z,75
2018-03-11T06:55:16.258Z,70
2018-03-11T06:55:56.763Z,70
2018-03-11T06:56:37.230Z,65
2018-03-11T06:57:17.736Z,60
2018-03-11T06:57:58.234Z,55
2018-03-11T06:58:38.727Z,55
2018-03-11T06:59:19.250Z,50
2018-03-11T06:59:59.755Z,55
2018-03-11T07:00:40.263Z,55
2018-03-11T07:01:20.760Z,55
2018-03-11T07:02:01.266Z,55
2018-03-11T07:02:41.768Z,55
2018-03-11T07:03:22.284Z,55
2018-03-11T07:04:02.769Z,60
2018-03-11T07:04:43.403Z,60
2018-03-11T07:05:23.808Z,65
2018-03-11T07:06:04.280Z,70
2018-03-11T07:06:44.757Z,75
2018-03-11T07:07:25.289Z,75
2018-03-11T07:08:05.747Z,75
2018-03-11T07:08:46.195Z,75
2018-03-11T07:09:26.690Z,70
2018-03-11T07:10:07.184Z,65
2018-03-11T07:10:47.722Z,65
2018-03-11T07:11:28.191Z,60
2018-03-11T07:12:08.776Z,60
2018-03-11T07:12:49.230Z,60
2018-03-11T07:13:29.734Z,55
2018-03-11T07:14:10.258Z,55
2018-03-11T07:14:50.738Z,55
2018-03-11T07:15:31.244Z,55
2018-03-11T07:16:11.744Z,55
2018-03-11T07:16:52.281Z,60
2018-03-11T07:17:32.747Z,55
2018-03-11T07:18:13.247Z,55
2018-03-11T07:18:53.727Z,55
2018-03-11T07:19:34.243Z,55
2018-03-11T07:20:14.736Z,50
2018-03-11T07:20:55.240Z,50
2018-03-11T07:21:35.818Z,45
2018-03-11T07:22:16.265Z,45
2018-03-11T07:22:56.811Z,50
2018-03-11T07:23:37.342Z,55
2018-03-11T07:24:17.774Z,55
2018-03-11T07:24:58.647Z,55
2018-03-11T07:25:39.238Z,55
2018-03-11T07:26:19.674Z,60
2018-03-11T07:27:00.211Z,60
2018-03-11T07:27:40.941Z,65
2018-03-11T07:28:21.510Z,65
2018-03-11T07:29:02.415Z,60
2018-03-11T07:29:42.883Z,60
2018-03-11T07:30:23.504Z,60
2018-03-11T07:31:04.433Z,55
2018-03-11T07:31:44.923Z,55
2018-03-11T07:32:25.451Z,55
2018-03-11T07:33:05.993Z,55
2018-03-11T07:33:46.506Z,55
2018-03-11T07:34:27.166Z,60
2018-03-11T07:35:07.681Z,65
2018-03-11T07:35:48.200Z,65
2018-03-11T07:36:28.696Z,65
2018-03-11T07:37:09.123Z,60
2018-03-11T07:39:39.242Z,50
2018-03-11T07:40:19.720Z,45
2018-03-11T07:41:00.261Z,45
2018-03-11T07:41:42.011Z,45
2018-03-11T07:42:22.428Z,50
2018-03-11T07:43:03.273Z,50
2018-03-11T07:43:43.870Z,50
2018-03-11T07:44:24.430Z,55
2018-03-11T07:45:04.914Z,55
2018-03-11T07:45:45.446Z,55
2018-03-11T07:46:26.021Z,60
2018-03-11T07:47:06.469Z,55
2018-03-11T07:47:47.092Z,55
2018-03-11T07:48:27.525Z,55
2018-03-11T07:49:08.269Z,55
2018-03-11T07:49:48.642Z,60
2018-03-11T07:50:29.151Z,65
2018-03-11T07:51:09.731Z,65
2018-03-11T07:51:50.868Z,65
2018-03-11T07:52:31.465Z,60
2018-03-11T07:53:12.042Z,60
2018-03-11T07:53:52.528Z,65
2018-03-11T07:54:33.099Z,65
2018-03-11T07:55:13.487Z,65
2018-03-11T07:55:54.436Z,70
2018-03-11T07:56:34.772Z,70
2018-03-11T07:57:15.279Z,70
2018-03-11T07:57:55.816Z,70
2018-03-11T07:58:36.310Z,70
2018-03-11T07:59:16.898Z,70
2018-03-11T07:59:57.423Z,70
2018-03-11T08:00:37.874Z,60
2018-03-11T08:01:21.079Z,60
2018-03-11T08:02:01.546Z,60
2018-03-11T08:02:41.990Z,60
2018-03-11T08:03:22.548Z,55
2018-03-11T08:04:03.031Z,55
2018-03-11T08:04:43.597Z,55
2018-03-11T08:05:24.027Z,55
2018-03-11T08:06:04.607Z,55
2018-03-11T08:06:45.107Z,55
2018-03-11T08:07:25.644Z,55
2018-03-11T08:08:06.609Z,60
2018-03-11T08:08:47.039Z,55
2018-03-11T08:09:27.708Z,55
2018-03-11T08:10:08.039Z,55
2018-03-11T08:10:49.159Z,55
2018-03-11T08:11:29.655Z,55
2018-03-11T08:12:10.137Z,60
2018-03-11T08:12:50.584Z,55
2018-03-11T08:13:31.085Z,55
2018-03-11T08:14:11.934Z,55
2018-03-11T08:14:52.360Z,55
2018-03-11T08:15:32.823Z,55
2018-03-11T08:16:13.311Z,55
2018-03-11T08:16:53.807Z,50
2018-03-11T08:17:34.267Z,50
2018-03-11T08:18:14.961Z,50
2018-03-11T08:18:55.555Z,45
2018-03-11T08:19:36.112Z,45
2018-03-11T08:20:16.623Z,45
2018-03-11T08:20:57.043Z,45
2018-03-11T08:21:37.508Z,45
2018-03-11T08:22:18.035Z,45
2018-03-11T08:22:58.495Z,45
2018-03-11T08:23:39.124Z,45
2018-03-11T08:24:19.547Z,45
2018-03-11T08:24:59.975Z,45
2018-03-11T08:25:40.543Z,50
2018-03-11T08:26:20.961Z,50
2018-03-11T08:27:01.765Z,45
2018-03-11T08:27:42.161Z,45
2018-03-11T08:28:22.637Z,45
2018-03-11T08:29:03.190Z,45
2018-03-11T08:29:43.684Z,45
2018-03-11T08:30:24.296Z,45
2018-03-11T08:31:04.965Z,45
2018-03-11T08:31:45.409Z,45
2018-03-11T08:32:25.956Z,45
2018-03-11T08:33:06.552Z,45
2018-03-11T08:33:47.028Z,45
2018-03-11T08:34:27.510Z,45
2018-03-11T08:35:07.985Z,45
2018-03-11T08:35:48.478Z,45
2018-03-11T08:36:29.016Z,45
2018-03-11T08:37:09.464Z,45
2018-03-11T08:37:49.962Z,50
2018-03-11T08:38:30.424Z,50
2018-03-11T08:39:10.944Z,55
2018-03-11T08:39:51.414Z,55
2018-03-11T08:40:31.925Z,60
2018-03-11T08:41:12.423Z,60
2018-03-11T08:41:52.872Z,60
2018-03-11T08:42:33.343Z,60
2018-03-11T08:43:13.844Z,60
2018-03-11T08:43:54.355Z,60
2018-03-11T08:44:34.794Z,60
2018-03-11T08:45:15.325Z,60
2018-03-11T08:45:55.813Z,60
2018-03-11T08:46:36.293Z,60
2018-03-11T08:47:16.847Z,60
2018-03-11T08:47:57.379Z,60
2018-03-11T08:48:37.956Z,60
2018-03-11T08:49:18.367Z,65
2018-03-11T08:49:59.225Z,65
2018-03-11T08:50:39.538Z,65
2018-03-11T08:51:20.038Z,60
2018-03-11T08:52:00.538Z,60
2018-03-11T08:52:41.008Z,60
2018-03-11T08:53:21.468Z,60
2018-03-11T08:54:01.987Z,60
2018-03-11T08:54:42.468Z,60
2018-03-11T08:55:22.952Z,60
2018-03-11T08:56:04.314Z,60
2018-03-11T08:56:44.831Z,60
2018-03-11T08:57:25.306Z,65
2018-03-11T08:58:05.811Z,70
2018-03-11T08:58:46.342Z,75
2018-03-11T08:59:26.841Z,80
2018-03-11T09:00:07.388Z,90
2018-03-11T09:00:47.919Z,95
2018-03-11T09:01:28.350Z,100
2018-03-11T09:02:09.302Z,110
2018-03-11T09:02:49.821Z,115
2018-03-11T09:03:30.353Z,120
2018-03-11T09:04:11.205Z,125
2018-03-11T09:04:52.076Z,130
2018-03-11T09:05:32.161Z,135
2018-03-11T09:06:12.683Z,140
2018-03-11T09:06:53.166Z,140
2018-03-11T09:07:33.652Z,145
2018-03-11T09:08:14.394Z,150
2018-03-11T09:08:54.873Z,150
2018-03-11T09:09:35.362Z,145
2018-03-11T09:10:15.977Z,140
2018-03-11T09:10:56.563Z,140
2018-03-11T09:11:37.343Z,130
2018-03-11T09:12:17.953Z,125
2018-03-11T09:12:58.420Z,120
2018-03-11T09:13:39.068Z,120
2018-03-11T09:14:19.699Z,120
2018-03-11T09:15:00.232Z,115
2018-03-11T09:15:40.698Z,110
2018-03-11T09:16:21.195Z,110
2018-03-11T09:17:01.679Z,100
2018-03-11T09:17:42.181Z,95
2018-03-11T09:18:22.675Z,90
2018-03-11T09:19:03.465Z,85
2018-03-11T09:19:43.850Z,85
2018-03-11T09:20:24.375Z,80
2018-03-11T09:21:05.030Z,80
2018-03-11T09:21:45.543Z,80
2018-03-11T09:22:26.013Z,85
2018-03-11T09:23:06.501Z,85
2018-03-11T09:23:47.049Z,85
2018-03-11T09:24:27.674Z,95
2018-03-11T09:25:08.106Z,100
2018-03-11T09:25:48.633Z,100
2018-03-11T09:26:29.147Z,105
2018-03-11T09:27:09.617Z,105
2018-03-11T09:27:50.125Z,105
2018-03-11T09:28:30.634Z,100
2018-03-11T09:29:11.194Z,95
2018-03-11T09:29:51.899Z,95
2018-03-11T09:30:33.286Z,90
2018-03-11T09:31:14.200Z,90
2018-03-11T09:31:57.452Z,85
2018-03-11T09:32:37.999Z,80
2018-03-11T09:33:18.447Z,75
2018-03-11T09:33:59.183Z,70
2018-03-11T09:34:39.867Z,65
2018-03-11T09:35:20.395Z,65
2018-03-11T09:36:00.874Z,60
2018-03-11T09:36:41.374Z,60
2018-03-11T09:37:22.475Z,60
2018-03-11T09:38:03.434Z,60
2018-03-11T09:38:43.834Z,60
2018-03-11T09:39:24.345Z,60
2018-03-11T09:40:46.589Z,65
2018-03-11T09:41:27.071Z,70
2018-03-11T09:42:07.582Z,75
2018-03-11T09:42:48.097Z,80
2018-03-11T09:43:28.616Z,80
2018-03-11T09:44:09.196Z,85
2018-03-11T09:44:49.640Z,80
2018-03-11T09:45:30.170Z,80
2018-03-11T09:46:10.725Z,80
2018-03-11T09:46:51.200Z,80
2018-03-11T09:47:31.759Z,80
2018-03-11T09:48:12.235Z,80
2018-03-11T09:48:52.780Z,80
2018-03-11T09:49:33.324Z,80
2018-03-11T09:50:13.819Z,85
2018-03-11T09:50:54.360Z,90
2018-03-11T09:51:34.865Z,95
2018-03-11T09:52:15.318Z,95
2018-03-11T09:52:55.824Z,100
2018-03-11T09:53:36.312Z,105
2018-03-11T09:54:16.839Z,115
2018-03-11T09:54:57.389Z,115
2018-03-11T09:55:37.932Z,125
2018-03-11T09:56:18.454Z,135